Abee, Canada
Current Conditions -  °F | °C
As of 8:00 AM on Monday 24 Nov 2014 (Local Time) from CYED Reporting Station
Broken Clouds Broken Clouds  
Wind Chill: 23°   Ceiling: 8300
Heat Index: 23°   Visibility: 9mi
Dew Point: 19°   Wind: 3mph
Humidity: 86%   Direction: 360°N
Pressure: 29.93"   Gusts: NA
Location:  54.23°N, 113.02°W
Report Text: CYED 241500Z AUTO 36003KT 9SM BKN083 M05/M07 A2993 RMK SLP174
Loading
Personal Weather Stations






























Interactive Weather Map New forecast layout! Learn more

10-Day Weather Forecast

Advertisements
Track Severe Weather on mobile